sensor_id;sensor_type;location;lat;lon;timestamp;P1;durP1;ratioP1;P2;durP2;ratioP2
9186;SDS011;7273;48.902;9.410;2023-03-11T00:00:34;0.00;;;0.00;;
9186;SDS011;7273;48.902;9.410;2023-03-11T00:03:03;0.00;;;0.00;;
9186;SDS011;7273;48.902;9.410;2023-03-11T00:05:30;0.00;;;0.00;;
9186;SDS011;7273;48.902;9.410;2023-03-11T00:07:57;0.00;;;0.00;;
9186;SDS011;7273;48.902;9.410;2023-03-11T00:10:28;0.00;;;0.00;;
9186;SDS011;7273;48.902;9.410;2023-03-11T00:12:56;0.00;;;0.00;;
9186;SDS011;7273;48.902;9.410;2023-03-11T00:15:22;399.10;;;134.95;;
9186;SDS011;7273;48.902;9.410;2023-03-11T00:17:48;391.25;;;131.82;;
9186;SDS011;7273;48.902;9.410;2023-03-11T00:20:16;395.52;;;133.85;;
9186;SDS011;7273;48.902;9.410;2023-03-11T00:22:46;398.85;;;135.18;;
9186;SDS011;7273;48.902;9.410;2023-03-11T00:25:12;398.17;;;134.80;;
9186;SDS011;7273;48.902;9.410;2023-03-11T00:27:38;400.67;;;136.13;;
9186;SDS011;7273;48.902;9.410;2023-03-11T00:30:03;403.50;;;137.35;;
9186;SDS011;7273;48.902;9.410;2023-03-11T00:32:29;410.13;;;142.43;;
9186;SDS011;7273;48.902;9.410;2023-03-11T00:34:55;408.45;;;139.35;;
9186;SDS011;7273;48.902;9.410;2023-03-11T00:37:20;408.27;;;138.93;;
9186;SDS011;7273;48.902;9.410;2023-03-11T00:39:45;407.00;;;138.77;;
9186;SDS011;7273;48.902;9.410;2023-03-11T00:42:11;406.97;;;139.13;;
9186;SDS011;7273;48.902;9.410;2023-03-11T00:44:36;409.03;;;140.20;;
9186;SDS011;7273;48.902;9.410;2023-03-11T00:47:01;409.43;;;139.97;;
9186;SDS011;7273;48.902;9.410;2023-03-11T00:49:27;412.02;;;140.50;;
9186;SDS011;7273;48.902;9.410;2023-03-11T00:51:52;409.17;;;140.20;;
9186;SDS011;7273;48.902;9.410;2023-03-11T00:54:18;407.88;;;139.18;;
9186;SDS011;7273;48.902;9.410;2023-03-11T00:56:43;406.60;;;138.73;;
9186;SDS011;7273;48.902;9.410;2023-03-11T00:59:09;410.75;;;140.57;;
9186;SDS011;7273;48.902;9.410;2023-03-11T01:01:34;413.38;;;141.50;;
9186;SDS011;7273;48.902;9.410;2023-03-11T01:04:00;416.60;;;142.30;;
9186;SDS011;7273;48.902;9.410;2023-03-11T01:06:25;404.17;;;137.70;;
9186;SDS011;7273;48.902;9.410;2023-03-11T01:08:50;414.73;;;142.02;;
9186;SDS011;7273;48.902;9.410;2023-03-11T01:11:16;421.00;;;144.23;;
9186;SDS011;7273;48.902;9.410;2023-03-11T01:13:41;421.23;;;144.55;;
9186;SDS011;7273;48.902;9.410;2023-03-11T01:16:07;419.90;;;144.18;;
9186;SDS011;7273;48.902;9.410;2023-03-11T01:18:33;410.08;;;140.02;;
9186;SDS011;7273;48.902;9.410;2023-03-11T01:20:59;423.98;;;146.05;;
9186;SDS011;7273;48.902;9.410;2023-03-11T01:23:24;418.42;;;143.95;;
9186;SDS011;7273;48.902;9.410;2023-03-11T01:25:50;424.63;;;146.73;;
9186;SDS011;7273;48.902;9.410;2023-03-11T01:28:15;418.77;;;144.32;;
9186;SDS011;7273;48.902;9.410;2023-03-11T01:30:41;416.30;;;143.45;;
9186;SDS011;7273;48.902;9.410;2023-03-11T01:33:07;428.92;;;148.55;;
9186;SDS011;7273;48.902;9.410;2023-03-11T01:35:37;427.38;;;148.27;;
9186;SDS011;7273;48.902;9.410;2023-03-11T01:38:04;426.88;;;146.40;;
9186;SDS011;7273;48.902;9.410;2023-03-11T01:40:30;428.15;;;147.90;;
9186;SDS011;7273;48.902;9.410;2023-03-11T01:43:01;422.60;;;146.07;;
9186;SDS011;7273;48.902;9.410;2023-03-11T01:47:53;410.33;;;141.57;;
9186;SDS011;7273;48.902;9.410;2023-03-11T01:50:19;419.13;;;144.95;;
9186;SDS011;7273;48.902;9.410;2023-03-11T01:52:44;426.23;;;147.68;;
9186;SDS011;7273;48.902;9.410;2023-03-11T01:55:11;428.13;;;148.63;;
9186;SDS011;7273;48.902;9.410;2023-03-11T01:57:38;427.20;;;148.20;;
9186;SDS011;7273;48.902;9.410;2023-03-11T02:00:07;427.02;;;147.98;;
9186;SDS011;7273;48.902;9.410;2023-03-11T02:02:41;429.45;;;149.35;;
9186;SDS011;7273;48.902;9.410;2023-03-11T02:05:12;427.45;;;148.50;;
9186;SDS011;7273;48.902;9.410;2023-03-11T02:07:38;428.25;;;149.00;;
9186;SDS011;7273;48.902;9.410;2023-03-11T02:10:04;436.63;;;152.50;;
9186;SDS011;7273;48.902;9.410;2023-03-11T02:12:32;436.60;;;152.30;;
9186;SDS011;7273;48.902;9.410;2023-03-11T02:15:00;436.35;;;151.82;;
9186;SDS011;7273;48.902;9.410;2023-03-11T02:17:27;439.17;;;152.95;;
9186;SDS011;7273;48.902;9.410;2023-03-11T02:22:27;439.55;;;153.15;;
9186;SDS011;7273;48.902;9.410;2023-03-11T02:25:04;445.05;;;156.38;;
9186;SDS011;7273;48.902;9.410;2023-03-11T02:27:35;423.70;;;149.52;;
9186;SDS011;7273;48.902;9.410;2023-03-11T02:30:05;361.33;;;129.85;;
9186;SDS011;7273;48.902;9.410;2023-03-11T02:32:32;281.25;;;107.07;;
9186;SDS011;7273;48.902;9.410;2023-03-11T02:34:58;229.50;;;91.07;;
9186;SDS011;7273;48.902;9.410;2023-03-11T02:37:23;238.70;;;93.95;;
9186;SDS011;7273;48.902;9.410;2023-03-11T02:39:50;250.43;;;97.00;;
9186;SDS011;7273;48.902;9.410;2023-03-11T02:42:27;231.70;;;91.57;;
9186;SDS011;7273;48.902;9.410;2023-03-11T02:45:07;210.23;;;85.25;;
9186;SDS011;7273;48.902;9.410;2023-03-11T02:47:35;192.88;;;79.20;;
9186;SDS011;7273;48.902;9.410;2023-03-11T02:50:03;211.88;;;85.30;;
9186;SDS011;7273;48.902;9.410;2023-03-11T02:52:30;204.95;;;83.53;;
9186;SDS011;7273;48.902;9.410;2023-03-11T02:54:57;183.35;;;76.28;;
9186;SDS011;7273;48.902;9.410;2023-03-11T02:57:22;210.60;;;85.00;;
9186;SDS011;7273;48.902;9.410;2023-03-11T02:59:48;221.07;;;88.37;;
9186;SDS011;7273;48.902;9.410;2023-03-11T03:02:13;227.67;;;92.13;;
9186;SDS011;7273;48.902;9.410;2023-03-11T03:04:39;229.80;;;91.05;;
9186;SDS011;7273;48.902;9.410;2023-03-11T03:07:04;232.07;;;91.63;;
9186;SDS011;7273;48.902;9.410;2023-03-11T03:09:29;230.98;;;91.43;;
9186;SDS011;7273;48.902;9.410;2023-03-11T03:11:55;236.27;;;92.47;;
9186;SDS011;7273;48.902;9.410;2023-03-11T03:14:20;187.30;;;77.23;;
9186;SDS011;7273;48.902;9.410;2023-03-11T03:16:46;216.77;;;86.70;;
9186;SDS011;7273;48.902;9.410;2023-03-11T03:19:11;227.02;;;89.75;;
9186;SDS011;7273;48.902;9.410;2023-03-11T03:21:37;216.53;;;87.00;;
9186;SDS011;7273;48.902;9.410;2023-03-11T03:24:02;217.40;;;86.93;;
9186;SDS011;7273;48.902;9.410;2023-03-11T03:26:27;219.13;;;89.82;;
9186;SDS011;7273;48.902;9.410;2023-03-11T03:28:53;224.43;;;89.22;;
9186;SDS011;7273;48.902;9.410;2023-03-11T03:31:18;229.33;;;90.03;;
9186;SDS011;7273;48.902;9.410;2023-03-11T03:33:44;224.45;;;89.55;;
9186;SDS011;7273;48.902;9.410;2023-03-11T03:36:10;235.45;;;92.60;;
9186;SDS011;7273;48.902;9.410;2023-03-11T03:38:37;234.45;;;92.47;;
9186;SDS011;7273;48.902;9.410;2023-03-11T03:41:03;237.88;;;93.70;;
9186;SDS011;7273;48.902;9.410;2023-03-11T03:43:28;242.60;;;94.85;;
9186;SDS011;7273;48.902;9.410;2023-03-11T03:45:58;250.20;;;97.18;;
9186;SDS011;7273;48.902;9.410;2023-03-11T03:48:28;252.13;;;97.82;;
9186;SDS011;7273;48.902;9.410;2023-03-11T03:50:54;252.93;;;98.20;;
9186;SDS011;7273;48.902;9.410;2023-03-11T03:53:20;257.02;;;99.40;;
9186;SDS011;7273;48.902;9.410;2023-03-11T03:55:45;258.87;;;100.07;;
9186;SDS011;7273;48.902;9.410;2023-03-11T03:58:11;257.48;;;99.78;;
9186;SDS011;7273;48.902;9.410;2023-03-11T04:00:36;236.70;;;93.47;;
9186;SDS011;7273;48.902;9.410;2023-03-11T04:03:03;251.20;;;97.82;;
9186;SDS011;7273;48.902;9.410;2023-03-11T04:05:29;253.60;;;98.15;;
9186;SDS011;7273;48.902;9.410;2023-03-11T04:07:55;259.35;;;100.65;;
9186;SDS011;7273;48.902;9.410;2023-03-11T04:10:20;268.92;;;102.90;;
9186;SDS011;7273;48.902;9.410;2023-03-11T04:12:45;270.55;;;103.53;;
9186;SDS011;7273;48.902;9.410;2023-03-11T04:15:11;272.33;;;104.00;;
9186;SDS011;7273;48.902;9.410;2023-03-11T04:17:36;276.50;;;105.10;;
9186;SDS011;7273;48.902;9.410;2023-03-11T04:20:03;274.20;;;107.00;;
9186;SDS011;7273;48.902;9.410;2023-03-11T04:22:31;272.85;;;104.57;;
9186;SDS011;7273;48.902;9.410;2023-03-11T04:24:57;271.00;;;103.65;;
9186;SDS011;7273;48.902;9.410;2023-03-11T04:27:22;273.10;;;104.57;;
9186;SDS011;7273;48.902;9.410;2023-03-11T04:29:48;270.05;;;103.57;;
9186;SDS011;7273;48.902;9.410;2023-03-11T04:32:13;270.43;;;103.77;;
9186;SDS011;7273;48.902;9.410;2023-03-11T04:34:39;260.70;;;100.90;;
9186;SDS011;7273;48.902;9.410;2023-03-11T04:37:04;263.55;;;101.65;;
9186;SDS011;7273;48.902;9.410;2023-03-11T04:39:30;263.15;;;102.10;;
9186;SDS011;7273;48.902;9.410;2023-03-11T04:41:55;267.63;;;103.55;;
9186;SDS011;7273;48.902;9.410;2023-03-11T04:44:21;264.58;;;102.63;;
9186;SDS011;7273;48.902;9.410;2023-03-11T04:46:46;265.02;;;102.40;;
9186;SDS011;7273;48.902;9.410;2023-03-11T04:49:12;271.27;;;104.73;;
9186;SDS011;7273;48.902;9.410;2023-03-11T04:51:37;274.23;;;105.43;;
9186;SDS011;7273;48.902;9.410;2023-03-11T04:54:03;266.30;;;103.13;;
9186;SDS011;7273;48.902;9.410;2023-03-11T04:56:28;264.40;;;102.57;;
9186;SDS011;7273;48.902;9.410;2023-03-11T04:58:54;258.38;;;103.05;;
9186;SDS011;7273;48.902;9.410;2023-03-11T05:01:19;0.00;;;0.00;;
9186;SDS011;7273;48.902;9.410;2023-03-11T05:03:44;0.03;;;0.00;;
9186;SDS011;7273;48.902;9.410;2023-03-11T05:06:10;0.25;;;0.10;;
9186;SDS011;7273;48.902;9.410;2023-03-11T05:08:35;0.08;;;0.08;;
9186;SDS011;7273;48.902;9.410;2023-03-11T05:11:01;0.00;;;0.00;;
9186;SDS011;7273;48.902;9.410;2023-03-11T05:13:26;0.15;;;0.15;;
9186;SDS011;7273;48.902;9.410;2023-03-11T05:15:52;0.00;;;0.00;;
9186;SDS011;7273;48.902;9.410;2023-03-11T05:18:17;93.03;;;35.25;;
9186;SDS011;7273;48.902;9.410;2023-03-11T05:20:43;254.23;;;98.78;;
9186;SDS011;7273;48.902;9.410;2023-03-11T05:23:09;259.48;;;100.60;;
9186;SDS011;7273;48.902;9.410;2023-03-11T05:25:34;260.00;;;100.78;;
9186;SDS011;7273;48.902;9.410;2023-03-11T05:27:59;266.75;;;103.13;;
9186;SDS011;7273;48.902;9.410;2023-03-11T05:30:25;276.02;;;105.95;;
9186;SDS011;7273;48.902;9.410;2023-03-11T05:32:51;278.45;;;106.82;;
9186;SDS011;7273;48.902;9.410;2023-03-11T05:35:16;272.27;;;106.45;;
9186;SDS011;7273;48.902;9.410;2023-03-11T05:37:42;274.80;;;105.72;;
9186;SDS011;7273;48.902;9.410;2023-03-11T05:40:08;286.30;;;109.10;;
9186;SDS011;7273;48.902;9.410;2023-03-11T05:42:36;288.35;;;109.70;;
9186;SDS011;7273;48.902;9.410;2023-03-11T05:45:01;289.95;;;110.32;;
9186;SDS011;7273;48.902;9.410;2023-03-11T05:47:27;287.00;;;109.32;;
9186;SDS011;7273;48.902;9.410;2023-03-11T05:49:52;286.15;;;108.72;;
9186;SDS011;7273;48.902;9.410;2023-03-11T05:52:18;289.42;;;109.60;;
9186;SDS011;7273;48.902;9.410;2023-03-11T05:54:43;281.67;;;107.83;;
9186;SDS011;7273;48.902;9.410;2023-03-11T05:57:08;286.70;;;109.35;;
9186;SDS011;7273;48.902;9.410;2023-03-11T05:59:34;282.10;;;108.07;;
9186;SDS011;7273;48.902;9.410;2023-03-11T06:02:01;287.50;;;109.45;;
9186;SDS011;7273;48.902;9.410;2023-03-11T06:04:27;291.75;;;110.45;;
9186;SDS011;7273;48.902;9.410;2023-03-11T06:06:52;289.13;;;109.60;;
9186;SDS011;7273;48.902;9.410;2023-03-11T06:09:18;318.67;;;119.47;;
9186;SDS011;7273;48.902;9.410;2023-03-11T06:11:43;313.85;;;118.03;;
9186;SDS011;7273;48.902;9.410;2023-03-11T06:14:10;310.33;;;116.75;;
9186;SDS011;7273;48.902;9.410;2023-03-11T06:16:36;312.77;;;117.70;;
9186;SDS011;7273;48.902;9.410;2023-03-11T06:19:02;314.50;;;118.07;;
9186;SDS011;7273;48.902;9.410;2023-03-11T06:21:27;314.50;;;118.10;;
9186;SDS011;7273;48.902;9.410;2023-03-11T06:23:53;307.93;;;116.00;;
9186;SDS011;7273;48.902;9.410;2023-03-11T06:26:19;304.70;;;115.13;;
9186;SDS011;7273;48.902;9.410;2023-03-11T06:28:46;313.83;;;117.72;;
9186;SDS011;7273;48.902;9.410;2023-03-11T06:31:13;325.73;;;120.97;;
9186;SDS011;7273;48.902;9.410;2023-03-11T06:33:41;322.52;;;121.05;;
9186;SDS011;7273;48.902;9.410;2023-03-11T06:36:06;333.60;;;123.55;;
9186;SDS011;7273;48.902;9.410;2023-03-11T06:38:32;326.98;;;121.07;;
9186;SDS011;7273;48.902;9.410;2023-03-11T06:40:59;334.48;;;123.50;;
9186;SDS011;7273;48.902;9.410;2023-03-11T06:43:25;325.77;;;121.03;;
9186;SDS011;7273;48.902;9.410;2023-03-11T06:45:51;337.65;;;124.28;;
9186;SDS011;7273;48.902;9.410;2023-03-11T06:48:16;344.60;;;126.93;;
9186;SDS011;7273;48.902;9.410;2023-03-11T06:50:42;363.33;;;132.38;;
9186;SDS011;7273;48.902;9.410;2023-03-11T06:53:08;247.48;;;89.72;;
9186;SDS011;7273;48.902;9.410;2023-03-11T06:55:34;367.60;;;132.50;;
9186;SDS011;7273;48.902;9.410;2023-03-11T06:57:59;375.27;;;135.18;;
9186;SDS011;7273;48.902;9.410;2023-03-11T07:00:25;383.52;;;137.98;;
9186;SDS011;7273;48.902;9.410;2023-03-11T07:02:51;384.42;;;138.43;;
9186;SDS011;7273;48.902;9.410;2023-03-11T07:05:16;393.20;;;139.75;;
9186;SDS011;7273;48.902;9.410;2023-03-11T07:07:42;385.83;;;138.52;;
9186;SDS011;7273;48.902;9.410;2023-03-11T07:10:07;386.95;;;139.30;;
9186;SDS011;7273;48.902;9.410;2023-03-11T07:12:33;324.65;;;120.93;;
9186;SDS011;7273;48.902;9.410;2023-03-11T07:14:59;364.63;;;132.07;;
9186;SDS011;7273;48.902;9.410;2023-03-11T07:17:25;353.60;;;125.78;;
9186;SDS011;7273;48.902;9.410;2023-03-11T07:19:51;399.88;;;144.05;;
9186;SDS011;7273;48.902;9.410;2023-03-11T07:22:17;333.80;;;115.68;;
9186;SDS011;7273;48.902;9.410;2023-03-11T07:24:46;360.08;;;126.07;;
9186;SDS011;7273;48.902;9.410;2023-03-11T07:27:12;0.20;;;0.03;;
9186;SDS011;7273;48.902;9.410;2023-03-11T07:29:38;390.20;;;128.65;;
9186;SDS011;7273;48.902;9.410;2023-03-11T07:32:05;191.63;;;66.95;;
9186;SDS011;7273;48.902;9.410;2023-03-11T07:34:31;285.67;;;99.60;;
9186;SDS011;7273;48.902;9.410;2023-03-11T07:36:57;11.82;;;3.92;;
9186;SDS011;7273;48.902;9.410;2023-03-11T07:39:22;0.00;;;0.00;;
9186;SDS011;7273;48.902;9.410;2023-03-11T07:41:47;159.90;;;53.28;;
9186;SDS011;7273;48.902;9.410;2023-03-11T07:44:13;340.40;;;111.57;;
9186;SDS011;7273;48.902;9.410;2023-03-11T07:46:40;381.98;;;131.68;;
9186;SDS011;7273;48.902;9.410;2023-03-11T07:49:06;197.02;;;63.05;;
9186;SDS011;7273;48.902;9.410;2023-03-11T07:51:32;288.90;;;81.97;;
9186;SDS011;7273;48.902;9.410;2023-03-11T07:53:59;226.02;;;67.45;;
9186;SDS011;7273;48.902;9.410;2023-03-11T07:56:26;0.10;;;0.10;;
9186;SDS011;7273;48.902;9.410;2023-03-11T07:58:53;1.08;;;0.47;;
9186;SDS011;7273;48.902;9.410;2023-03-11T08:01:20;0.00;;;0.00;;
9186;SDS011;7273;48.902;9.410;2023-03-11T08:03:47;0.05;;;0.03;;
9186;SDS011;7273;48.902;9.410;2023-03-11T08:06:15;0.05;;;0.05;;
9186;SDS011;7273;48.902;9.410;2023-03-11T08:08:43;0.00;;;0.00;;
9186;SDS011;7273;48.902;9.410;2023-03-11T08:11:09;0.00;;;0.00;;
9186;SDS011;7273;48.902;9.410;2023-03-11T08:13:37;0.43;;;0.20;;
9186;SDS011;7273;48.902;9.410;2023-03-11T08:16:03;0.00;;;0.00;;
9186;SDS011;7273;48.902;9.410;2023-03-11T08:18:30;0.10;;;0.10;;
9186;SDS011;7273;48.902;9.410;2023-03-11T08:20:56;0.10;;;0.05;;
9186;SDS011;7273;48.902;9.410;2023-03-11T08:23:22;0.00;;;0.00;;
9186;SDS011;7273;48.902;9.410;2023-03-11T08:25:47;0.55;;;0.10;;
9186;SDS011;7273;48.902;9.410;2023-03-11T08:28:13;0.00;;;0.00;;
9186;SDS011;7273;48.902;9.410;2023-03-11T08:30:38;0.20;;;0.10;;
9186;SDS011;7273;48.902;9.410;2023-03-11T08:33:04;0.10;;;0.10;;
9186;SDS011;7273;48.902;9.410;2023-03-11T08:35:30;2.30;;;1.02;;
9186;SDS011;7273;48.902;9.410;2023-03-11T08:37:56;0.10;;;0.10;;
9186;SDS011;7273;48.902;9.410;2023-03-11T08:40:21;0.00;;;0.00;;
9186;SDS011;7273;48.902;9.410;2023-03-11T08:42:47;0.10;;;0.10;;
9186;SDS011;7273;48.902;9.410;2023-03-11T08:45:13;0.00;;;0.00;;
9186;SDS011;7273;48.902;9.410;2023-03-11T08:47:38;0.95;;;0.25;;
9186;SDS011;7273;48.902;9.410;2023-03-11T08:50:05;0.00;;;0.00;;
9186;SDS011;7273;48.902;9.410;2023-03-11T08:52:33;0.00;;;0.00;;
9186;SDS011;7273;48.902;9.410;2023-03-11T08:54:59;0.10;;;0.10;;
9186;SDS011;7273;48.902;9.410;2023-03-11T08:57:24;2.50;;;0.90;;
9186;SDS011;7273;48.902;9.410;2023-03-11T08:59:50;0.00;;;0.00;;
9186;SDS011;7273;48.902;9.410;2023-03-11T09:02:15;0.10;;;0.00;;
9186;SDS011;7273;48.902;9.410;2023-03-11T09:04:40;0.47;;;0.20;;
9186;SDS011;7273;48.902;9.410;2023-03-11T09:07:06;0.10;;;0.10;;
9186;SDS011;7273;48.902;9.410;2023-03-11T09:09:34;1.10;;;0.17;;
9186;SDS011;7273;48.902;9.410;2023-03-11T09:11:59;3.30;;;0.70;;
9186;SDS011;7273;48.902;9.410;2023-03-11T09:14:25;0.00;;;0.00;;
9186;SDS011;7273;48.902;9.410;2023-03-11T09:16:50;0.10;;;0.00;;
9186;SDS011;7273;48.902;9.410;2023-03-11T09:19:15;0.40;;;0.20;;
9186;SDS011;7273;48.902;9.410;2023-03-11T09:21:41;0.47;;;0.28;;
9186;SDS011;7273;48.902;9.410;2023-03-11T09:24:06;0.10;;;0.10;;
9186;SDS011;7273;48.902;9.410;2023-03-11T09:26:32;0.45;;;0.20;;
9186;SDS011;7273;48.902;9.410;2023-03-11T09:28:57;0.17;;;0.05;;
9186;SDS011;7273;48.902;9.410;2023-03-11T09:31:23;0.10;;;0.10;;
9186;SDS011;7273;48.902;9.410;2023-03-11T09:33:49;0.10;;;0.10;;
9186;SDS011;7273;48.902;9.410;2023-03-11T09:36:17;1.35;;;0.10;;
9186;SDS011;7273;48.902;9.410;2023-03-11T09:38:44;1.17;;;0.32;;
9186;SDS011;7273;48.902;9.410;2023-03-11T09:41:18;0.00;;;0.00;;
9186;SDS011;7273;48.902;9.410;2023-03-11T09:49:30;0.00;;;0.00;;
9186;SDS011;7273;48.902;9.410;2023-03-11T09:52:29;0.00;;;0.00;;
9186;SDS011;7273;48.902;9.410;2023-03-11T09:55:02;0.10;;;0.10;;
9186;SDS011;7273;48.902;9.410;2023-03-11T09:57:33;0.08;;;0.08;;
9186;SDS011;7273;48.902;9.410;2023-03-11T10:00:02;0.00;;;0.00;;
9186;SDS011;7273;48.902;9.410;2023-03-11T10:02:29;0.30;;;0.30;;
9186;SDS011;7273;48.902;9.410;2023-03-11T10:05:05;0.00;;;0.00;;
9186;SDS011;7273;48.902;9.410;2023-03-11T10:07:40;0.20;;;0.10;;
9186;SDS011;7273;48.902;9.410;2023-03-11T10:10:13;0.00;;;0.00;;
9186;SDS011;7273;48.902;9.410;2023-03-11T10:26:14;1.17;;;0.38;;
9186;SDS011;7273;48.902;9.410;2023-03-11T10:28:56;0.03;;;0.03;;
9186;SDS011;7273;48.902;9.410;2023-03-11T10:31:25;0.10;;;0.00;;
9186;SDS011;7273;48.902;9.410;2023-03-11T10:37:09;0.00;;;0.00;;
9186;SDS011;7273;48.902;9.410;2023-03-11T10:39:38;0.15;;;0.05;;
9186;SDS011;7273;48.902;9.410;2023-03-11T10:42:05;0.00;;;0.00;;
9186;SDS011;7273;48.902;9.410;2023-03-11T10:44:38;0.00;;;0.00;;
9186;SDS011;7273;48.902;9.410;2023-03-11T10:47:06;0.00;;;0.00;;
9186;SDS011;7273;48.902;9.410;2023-03-11T10:49:44;0.00;;;0.00;;
9186;SDS011;7273;48.902;9.410;2023-03-11T10:52:10;0.00;;;0.00;;
9186;SDS011;7273;48.902;9.410;2023-03-11T10:54:37;3.47;;;0.30;;
9186;SDS011;7273;48.902;9.410;2023-03-11T10:57:23;0.10;;;0.10;;
9186;SDS011;7273;48.902;9.410;2023-03-11T10:59:54;0.10;;;0.10;;
9186;SDS011;7273;48.902;9.410;2023-03-11T11:02:23;0.10;;;0.10;;
9186;SDS011;7273;48.902;9.410;2023-03-11T11:10:15;0.10;;;0.10;;
9186;SDS011;7273;48.902;9.410;2023-03-11T11:12:57;4.55;;;0.20;;
9186;SDS011;7273;48.902;9.410;2023-03-11T11:15:28;0.93;;;0.65;;
9186;SDS011;7273;48.902;9.410;2023-03-11T11:18:22;0.63;;;0.25;;
9186;SDS011;7273;48.902;9.410;2023-03-11T11:21:06;0.15;;;0.05;;
9186;SDS011;7273;48.902;9.410;2023-03-11T11:24:02;0.20;;;0.20;;
9186;SDS011;7273;48.902;9.410;2023-03-11T11:26:27;9.88;;;1.25;;
9186;SDS011;7273;48.902;9.410;2023-03-11T11:31:33;0.57;;;0.57;;
9186;SDS011;7273;48.902;9.410;2023-03-11T11:33:59;0.10;;;0.10;;
9186;SDS011;7273;48.902;9.410;2023-03-11T11:36:29;0.00;;;0.00;;
9186;SDS011;7273;48.902;9.410;2023-03-11T11:38:58;0.00;;;0.00;;
9186;SDS011;7273;48.902;9.410;2023-03-11T11:41:29;0.00;;;0.00;;
9186;SDS011;7273;48.902;9.410;2023-03-11T11:44:00;0.00;;;0.00;;
9186;SDS011;7273;48.902;9.410;2023-03-11T11:46:41;0.85;;;0.32;;
9186;SDS011;7273;48.902;9.410;2023-03-11T11:49:31;0.10;;;0.08;;
9186;SDS011;7273;48.902;9.410;2023-03-11T11:57:21;1.52;;;0.40;;
9186;SDS011;7273;48.902;9.410;2023-03-11T11:59:48;0.00;;;0.00;;
9186;SDS011;7273;48.902;9.410;2023-03-11T12:07:47;0.57;;;0.20;;
9186;SDS011;7273;48.902;9.410;2023-03-11T12:13:23;0.00;;;0.00;;
9186;SDS011;7273;48.902;9.410;2023-03-11T12:18:51;0.10;;;0.10;;
9186;SDS011;7273;48.902;9.410;2023-03-11T12:27:13;4.68;;;1.55;;
9186;SDS011;7273;48.902;9.410;2023-03-11T12:29:46;0.05;;;0.05;;
9186;SDS011;7273;48.902;9.410;2023-03-11T12:32:21;0.25;;;0.15;;
9186;SDS011;7273;48.902;9.410;2023-03-11T12:34:51;1.25;;;0.20;;
9186;SDS011;7273;48.902;9.410;2023-03-11T12:37:17;0.05;;;0.05;;
9186;SDS011;7273;48.902;9.410;2023-03-11T12:39:47;0.10;;;0.10;;
9186;SDS011;7273;48.902;9.410;2023-03-11T12:44:38;0.00;;;0.00;;
9186;SDS011;7273;48.902;9.410;2023-03-11T12:49:34;0.65;;;0.45;;
9186;SDS011;7273;48.902;9.410;2023-03-11T12:54:36;0.22;;;0.00;;
9186;SDS011;7273;48.902;9.410;2023-03-11T12:57:23;0.00;;;0.00;;
9186;SDS011;7273;48.902;9.410;2023-03-11T13:03:01;0.00;;;0.00;;
9186;SDS011;7273;48.902;9.410;2023-03-11T13:08:54;0.00;;;0.00;;
9186;SDS011;7273;48.902;9.410;2023-03-11T13:11:34;0.17;;;0.17;;
9186;SDS011;7273;48.902;9.410;2023-03-11T13:16:36;0.00;;;0.00;;
9186;SDS011;7273;48.902;9.410;2023-03-11T13:21:50;0.00;;;0.00;;
9186;SDS011;7273;48.902;9.410;2023-03-11T13:26:44;0.00;;;0.00;;
9186;SDS011;7273;48.902;9.410;2023-03-11T13:41:02;0.00;;;0.00;;
9186;SDS011;7273;48.902;9.410;2023-03-11T13:43:37;0.00;;;0.00;;
9186;SDS011;7273;48.902;9.410;2023-03-11T13:46:30;7.38;;;0.30;;
9186;SDS011;7273;48.902;9.410;2023-03-11T13:49:05;0.00;;;0.00;;
9186;SDS011;7273;48.902;9.410;2023-03-11T13:51:39;0.00;;;0.00;;
9186;SDS011;7273;48.902;9.410;2023-03-11T13:54:30;0.45;;;0.20;;
9186;SDS011;7273;48.902;9.410;2023-03-11T13:56:57;7.57;;;0.57;;
9186;SDS011;7273;48.902;9.410;2023-03-11T13:59:26;0.00;;;0.00;;
9186;SDS011;7273;48.902;9.410;2023-03-11T14:01:52;0.65;;;0.43;;
9186;SDS011;7273;48.902;9.410;2023-03-11T14:04:24;0.00;;;0.00;;
9186;SDS011;7273;48.902;9.410;2023-03-11T14:06:52;0.55;;;0.08;;
9186;SDS011;7273;48.902;9.410;2023-03-11T14:09:18;0.13;;;0.13;;
9186;SDS011;7273;48.902;9.410;2023-03-11T14:11:45;0.10;;;0.10;;
9186;SDS011;7273;48.902;9.410;2023-03-11T14:14:57;0.52;;;0.10;;
9186;SDS011;7273;48.902;9.410;2023-03-11T14:17:16;0.10;;;0.10;;
9186;SDS011;7273;48.902;9.410;2023-03-11T14:20:00;0.03;;;0.03;;
9186;SDS011;7273;48.902;9.410;2023-03-11T14:22:31;0.00;;;0.00;;
9186;SDS011;7273;48.902;9.410;2023-03-11T14:24:57;0.25;;;0.13;;
9186;SDS011;7273;48.902;9.410;2023-03-11T14:29:51;0.00;;;0.00;;
9186;SDS011;7273;48.902;9.410;2023-03-11T14:32:32;0.32;;;0.32;;
9186;SDS011;7273;48.902;9.410;2023-03-11T14:34:59;0.45;;;0.20;;
9186;SDS011;7273;48.902;9.410;2023-03-11T14:39:57;3.33;;;0.40;;
9186;SDS011;7273;48.902;9.410;2023-03-11T14:44:58;0.20;;;0.20;;
9186;SDS011;7273;48.902;9.410;2023-03-11T14:50:04;0.38;;;0.10;;
9186;SDS011;7273;48.902;9.410;2023-03-11T14:52:41;0.05;;;0.00;;
9186;SDS011;7273;48.902;9.410;2023-03-11T14:55:17;0.75;;;0.55;;
9186;SDS011;7273;48.902;9.410;2023-03-11T14:58:48;0.32;;;0.32;;
9186;SDS011;7273;48.902;9.410;2023-03-11T15:03:29;1.45;;;0.20;;
9186;SDS011;7273;48.902;9.410;2023-03-11T15:06:05;0.03;;;0.03;;
9186;SDS011;7273;48.902;9.410;2023-03-11T15:08:34;0.13;;;0.13;;
9186;SDS011;7273;48.902;9.410;2023-03-11T15:11:12;0.10;;;0.10;;
9186;SDS011;7273;48.902;9.410;2023-03-11T15:13:44;0.10;;;0.10;;
9186;SDS011;7273;48.902;9.410;2023-03-11T15:16:30;0.08;;;0.08;;
9186;SDS011;7273;48.902;9.410;2023-03-11T15:18:59;0.00;;;0.00;;
9186;SDS011;7273;48.902;9.410;2023-03-11T15:21:26;0.00;;;0.00;;
9186;SDS011;7273;48.902;9.410;2023-03-11T15:24:02;0.75;;;0.40;;
9186;SDS011;7273;48.902;9.410;2023-03-11T15:26:31;0.00;;;0.00;;
9186;SDS011;7273;48.902;9.410;2023-03-11T15:29:03;0.90;;;0.30;;
9186;SDS011;7273;48.902;9.410;2023-03-11T15:31:38;0.40;;;0.28;;
9186;SDS011;7273;48.902;9.410;2023-03-11T15:36:42;0.00;;;0.00;;
9186;SDS011;7273;48.902;9.410;2023-03-11T15:39:13;0.10;;;0.10;;
9186;SDS011;7273;48.902;9.410;2023-03-11T15:41:42;0.30;;;0.10;;
9186;SDS011;7273;48.902;9.410;2023-03-11T15:44:54;0.10;;;0.10;;
9186;SDS011;7273;48.902;9.410;2023-03-11T15:47:05;0.25;;;0.22;;
9186;SDS011;7273;48.902;9.410;2023-03-11T15:49:36;0.20;;;0.00;;
9186;SDS011;7273;48.902;9.410;2023-03-11T15:52:02;0.05;;;0.05;;
9186;SDS011;7273;48.902;9.410;2023-03-11T15:54:27;0.32;;;0.20;;
9186;SDS011;7273;48.902;9.410;2023-03-11T15:56:54;24.10;;;0.82;;
9186;SDS011;7273;48.902;9.410;2023-03-11T15:59:21;0.20;;;0.20;;
9186;SDS011;7273;48.902;9.410;2023-03-11T16:01:48;0.38;;;0.10;;
9186;SDS011;7273;48.902;9.410;2023-03-11T16:04:14;0.00;;;0.00;;
9186;SDS011;7273;48.902;9.410;2023-03-11T16:06:41;0.00;;;0.00;;
9186;SDS011;7273;48.902;9.410;2023-03-11T16:09:08;0.00;;;0.00;;
9186;SDS011;7273;48.902;9.410;2023-03-11T16:11:33;0.10;;;0.10;;
9186;SDS011;7273;48.902;9.410;2023-03-11T16:14:00;0.10;;;0.10;;
9186;SDS011;7273;48.902;9.410;2023-03-11T16:16:25;0.00;;;0.00;;
9186;SDS011;7273;48.902;9.410;2023-03-11T16:18:51;0.20;;;0.20;;
9186;SDS011;7273;48.902;9.410;2023-03-11T16:21:17;0.90;;;0.32;;
9186;SDS011;7273;48.902;9.410;2023-03-11T16:26:11;0.10;;;0.10;;
9186;SDS011;7273;48.902;9.410;2023-03-11T16:28:37;0.03;;;0.00;;
9186;SDS011;7273;48.902;9.410;2023-03-11T16:31:03;0.55;;;0.40;;
9186;SDS011;7273;48.902;9.410;2023-03-11T16:33:29;21.83;;;1.70;;
9186;SDS011;7273;48.902;9.410;2023-03-11T16:35:54;0.10;;;0.10;;
9186;SDS011;7273;48.902;9.410;2023-03-11T16:38:20;0.98;;;0.43;;
9186;SDS011;7273;48.902;9.410;2023-03-11T16:40:56;0.20;;;0.20;;
9186;SDS011;7273;48.902;9.410;2023-03-11T16:43:24;1.25;;;0.35;;
9186;SDS011;7273;48.902;9.410;2023-03-11T16:45:50;0.08;;;0.03;;